Lockwood, North Dakota
Current Conditions -  °F | °C
As of 7:58 PM on Friday 31 Oct 2014 (Local Time) from KMIB Reporting Station
Clear Clear  
Wind Chill: 24°   Ceiling: Unl
Heat Index: 35°   Visibility: 10mi
Dew Point: 14°   Wind: 16mph
Humidity: 44%   Direction: 160°SSE
Pressure: 30.08"   Gusts: 26mph
Location:  48.6236°N, 101.367°W
Report Text: KMIB 010058Z AUTO 16014G23KT 10SM CLR 01/M10 A3008 RMK AO2 SLP216 T00141098 $
Loading
Personal Weather Stations






























Interactive Weather Map
Tropical Storm Tracking
New forecast layout! Learn more

10-Day Weather Forecast

Advertisements
Track Severe Weather on mobile